Time;durP1;ratioP1;P1;durP2;ratioP2;P2;SDS_P1;SDS_P2;PMS_P1;PMS_P2;Temp;Humidity;BMP_temperature;BMP_pressure;BME280_temperature;BME280_humidity;BME280_pressure;Samples;Min_cycle;Max_cycle;Signal;HPM_P1;HPM_P2
2023/12/18 00:00:53;;;;;;;16.20;6.82;;;;;;;;;;5090295;28;20098;-80
2023/12/18 00:03:19;;;;;;;13.30;6.70;;;;;;;;;;5095443;28;20064;-79
2023/12/18 00:05:45;;;;;;;18.02;6.60;;;;;;;;;;5095760;28;20049;-78
2023/12/18 00:08:12;;;;;;;14.57;6.80;;;;;;;;;;5092513;28;20105;-77
2023/12/18 00:10:39;;;;;;;16.35;6.55;;;;;;;;;;5092683;28;20045;-79
2023/12/18 00:13:06;;;;;;;26.27;7.00;;;;;;;;;;5095262;28;20044;-78
2023/12/18 00:15:33;;;;;;;13.73;6.32;;;;;;;;;;5092675;28;20044;-78
2023/12/18 00:18:01;;;;;;;13.07;6.25;;;;;;;;;;5088395;28;20048;-80
2023/12/18 00:20:28;;;;;;;14.27;6.43;;;;;;;;;;5093916;28;20090;-78
2023/12/18 00:22:54;;;;;;;14.07;6.75;;;;;;;;;;5094944;28;20052;-78
2023/12/18 00:25:21;;;;;;;16.95;6.85;;;;;;;;;;5095250;28;20077;-79
2023/12/18 00:27:48;;;;;;;16.95;6.35;;;;;;;;;;5089461;28;20094;-80
2023/12/18 00:30:15;;;;;;;13.82;6.07;;;;;;;;;;5095628;28;20044;-79
2023/12/18 00:32:41;;;;;;;11.90;6.35;;;;;;;;;;5094673;28;20056;-79
2023/12/18 00:35:10;;;;;;;11.10;6.30;;;;;;;;;;5096895;28;20040;-80
2023/12/18 00:37:36;;;;;;;15.77;6.57;;;;;;;;;;5093045;28;20048;-79
2023/12/18 00:40:03;;;;;;;16.60;7.07;;;;;;;;;;5092328;28;20040;-78
2023/12/18 00:42:30;;;;;;;15.52;6.68;;;;;;;;;;5092421;28;20052;-78
2023/12/18 00:44:57;;;;;;;13.18;5.68;;;;;;;;;;5089715;28;20052;-80
2023/12/18 00:47:23;;;;;;;14.77;6.45;;;;;;;;;;5087143;28;20044;-78
2023/12/18 00:49:50;;;;;;;13.57;5.82;;;;;;;;;;5089550;28;20048;-79
2023/12/18 00:52:18;;;;;;;12.68;6.28;;;;;;;;;;5093771;28;20081;-79
2023/12/18 00:54:45;;;;;;;14.32;6.32;;;;;;;;;;5094746;28;20044;-79
2023/12/18 00:57:11;;;;;;;14.88;6.90;;;;;;;;;;5096345;28;20078;-78
2023/12/18 00:59:38;;;;;;;11.77;6.05;;;;;;;;;;5098097;28;20102;-79
2023/12/18 01:02:05;;;;;;;13.40;6.80;;;;;;;;;;5099806;28;20044;-78
2023/12/18 01:04:32;;;;;;;14.88;7.07;;;;;;;;;;5088328;28;20048;-78
2023/12/18 01:06:58;;;;;;;12.68;5.85;;;;;;;;;;5096485;28;20073;-80
2023/12/18 01:09:27;;;;;;;11.68;7.05;;;;;;;;;;5097267;28;20064;-80
2023/12/18 01:11:54;;;;;;;12.95;6.80;;;;;;;;;;5095836;28;20229;-80
2023/12/18 01:14:20;;;;;;;13.90;7.38;;;;;;;;;;5096663;28;20072;-79
2023/12/18 01:16:47;;;;;;;13.27;6.78;;;;;;;;;;5095990;28;20049;-79
2023/12/18 01:19:13;;;;;;;15.00;6.82;;;;;;;;;;5100082;28;20070;-79
2023/12/18 01:21:40;;;;;;;11.48;5.85;;;;;;;;;;5095967;28;20463;-79
2023/12/18 01:24:07;;;;;;;11.43;6.03;;;;;;;;;;5093633;28;20044;-80
2023/12/18 01:26:38;;;;;;;12.85;6.30;;;;;;;;;;5093886;28;20074;-79
2023/12/18 01:29:05;;;;;;;11.55;5.55;;;;;;;;;;5092541;28;20111;-79
2023/12/18 01:31:31;;;;;;;14.20;6.35;;;;;;;;;;5085527;28;20122;-80
2023/12/18 01:33:59;;;;;;;13.95;6.20;;;;;;;;;;5094838;28;20048;-80
2023/12/18 01:36:25;;;;;;;12.13;6.30;;;;;;;;;;5093821;28;20095;-80
2023/12/18 01:38:52;;;;;;;15.50;6.97;;;;;;;;;;5096277;28;20101;-79
2023/12/18 01:41:19;;;;;;;16.58;7.03;;;;;;;;;;5094419;28;20066;-80
2023/12/18 01:43:47;;;;;;;11.98;6.63;;;;;;;;;;5091951;28;20044;-79
2023/12/18 01:46:19;;;;;;;13.25;6.38;;;;;;;;;;5094699;28;20173;-80
2023/12/18 01:48:46;;;;;;;12.35;6.55;;;;;;;;;;5093961;28;20388;-79
2023/12/18 01:51:13;;;;;;;10.98;6.50;;;;;;;;;;5092334;28;20044;-80
2023/12/18 01:53:43;;;;;;;13.57;6.20;;;;;;;;;;5088921;28;20074;-78
2023/12/18 01:56:12;;;;;;;12.95;6.28;;;;;;;;;;5096276;28;20043;-78
2023/12/18 01:58:39;;;;;;;14.65;6.72;;;;;;;;;;5096462;28;20075;-79
2023/12/18 02:01:08;;;;;;;11.65;6.47;;;;;;;;;;5085966;28;20055;-79
2023/12/18 02:03:36;;;;;;;9.77;5.88;;;;;;;;;;5088561;28;20045;-79
2023/12/18 02:06:05;;;;;;;13.75;6.43;;;;;;;;;;5090066;28;20051;-79
2023/12/18 02:08:32;;;;;;;14.63;7.22;;;;;;;;;;5096446;28;20079;-80
2023/12/18 02:10:59;;;;;;;15.77;6.40;;;;;;;;;;5094121;28;20083;-79
2023/12/18 02:13:26;;;;;;;13.23;7.20;;;;;;;;;;5090010;28;20056;-80
2023/12/18 02:15:53;;;;;;;12.77;6.75;;;;;;;;;;5093472;28;20052;-79
2023/12/18 02:18:21;;;;;;;11.73;6.45;;;;;;;;;;5094571;28;20079;-79
2023/12/18 02:20:48;;;;;;;15.57;6.80;;;;;;;;;;5091537;28;20080;-80
2023/12/18 02:23:16;;;;;;;13.02;6.85;;;;;;;;;;5091130;28;20072;-79
2023/12/18 02:25:43;;;;;;;13.18;6.90;;;;;;;;;;5091101;28;20105;-78
2023/12/18 02:28:11;;;;;;;16.67;6.63;;;;;;;;;;5093363;28;20507;-80
2023/12/18 02:30:38;;;;;;;13.52;6.45;;;;;;;;;;5097886;28;20454;-79
2023/12/18 02:33:05;;;;;;;14.57;6.45;;;;;;;;;;5089182;28;20557;-80
2023/12/18 02:35:32;;;;;;;14.80;6.78;;;;;;;;;;5095006;28;20420;-80
2023/12/18 02:37:59;;;;;;;14.80;6.78;;;;;;;;;;5096807;28;20044;-80
2023/12/18 02:40:27;;;;;;;17.35;7.53;;;;;;;;;;5093800;28;20044;-80
2023/12/18 02:42:54;;;;;;;15.50;7.15;;;;;;;;;;5096485;28;20058;-79
2023/12/18 02:45:20;;;;;;;11.52;6.68;;;;;;;;;;5096043;28;20051;-79
2023/12/18 02:47:47;;;;;;;12.52;7.20;;;;;;;;;;5096433;28;20044;-80
2023/12/18 02:50:15;;;;;;;14.85;7.22;;;;;;;;;;5099024;28;20515;-79
2023/12/18 02:52:41;;;;;;;13.68;7.53;;;;;;;;;;5093408;28;20263;-80
2023/12/18 02:55:11;;;;;;;15.00;7.75;;;;;;;;;;5095301;28;20048;-80
2023/12/18 02:57:39;;;;;;;16.15;7.10;;;;;;;;;;5094848;28;20049;-80
2023/12/18 03:00:08;;;;;;;14.48;7.38;;;;;;;;;;5090608;28;20056;-80
2023/12/18 03:02:35;;;;;;;18.75;8.13;;;;;;;;;;5090589;28;20052;-80
2023/12/18 03:05:01;;;;;;;16.58;8.23;;;;;;;;;;5090307;28;20048;-80
2023/12/18 03:07:28;;;;;;;15.07;7.38;;;;;;;;;;5094555;28;20553;-80
2023/12/18 03:09:54;;;;;;;14.85;7.45;;;;;;;;;;5095720;28;20083;-80
2023/12/18 03:12:21;;;;;;;14.95;7.55;;;;;;;;;;5093738;28;20460;-80
2023/12/18 03:14:49;;;;;;;13.70;7.15;;;;;;;;;;5094067;28;20076;-80
2023/12/18 03:17:16;;;;;;;18.17;8.02;;;;;;;;;;5097109;28;20067;-80
2023/12/18 03:19:42;;;;;;;14.07;6.75;;;;;;;;;;5097687;28;20056;-80
2023/12/18 03:22:09;;;;;;;17.42;7.50;;;;;;;;;;5096465;28;20048;-80
2023/12/18 03:24:36;;;;;;;12.98;6.53;;;;;;;;;;5093299;28;20469;-80
2023/12/18 03:27:03;;;;;;;14.68;7.35;;;;;;;;;;5100340;28;20044;-80
2023/12/18 03:29:29;;;;;;;17.67;7.88;;;;;;;;;;5097886;28;20048;-80
2023/12/18 03:31:57;;;;;;;15.30;8.05;;;;;;;;;;5097315;28;20109;-80
2023/12/18 03:34:24;;;;;;;14.80;7.00;;;;;;;;;;5102896;28;20127;-79
2023/12/18 03:36:51;;;;;;;18.13;7.40;;;;;;;;;;5097397;28;20474;-80
2023/12/18 03:39:17;;;;;;;19.33;8.55;;;;;;;;;;5100704;28;20044;-80
2023/12/18 03:41:44;;;;;;;16.90;7.43;;;;;;;;;;5095844;28;20055;-80
2023/12/18 03:44:11;;;;;;;18.33;8.63;;;;;;;;;;5095726;28;20113;-80
2023/12/18 03:46:37;;;;;;;18.40;9.23;;;;;;;;;;5102316;28;20052;-80
2023/12/18 03:49:05;;;;;;;16.02;7.70;;;;;;;;;;5094729;28;20048;-80
2023/12/18 03:51:32;;;;;;;18.63;8.10;;;;;;;;;;5097800;28;20152;-80
2023/12/18 03:53:59;;;;;;;16.35;8.52;;;;;;;;;;5098876;28;20048;-79
2023/12/18 03:56:26;;;;;;;14.98;7.90;;;;;;;;;;5099630;28;20576;-79
2023/12/18 03:58:52;;;;;;;19.80;8.77;;;;;;;;;;5096215;28;20661;-80
2023/12/18 04:01:19;;;;;;;18.25;8.05;;;;;;;;;;5100062;28;20420;-80
2023/12/18 04:03:47;;;;;;;15.43;8.05;;;;;;;;;;5097128;28;20048;-80
2023/12/18 04:06:15;;;;;;;20.00;7.82;;;;;;;;;;5102012;28;20040;-79
2023/12/18 04:08:41;;;;;;;16.98;7.70;;;;;;;;;;5099001;28;20045;-79
2023/12/18 04:11:15;;;;;;;17.55;9.05;;;;;;;;;;5100384;28;20044;-79
2023/12/18 04:13:42;;;;;;;19.77;8.80;;;;;;;;;;5096849;28;20072;-80
2023/12/18 04:16:08;;;;;;;16.88;7.63;;;;;;;;;;5095989;28;20105;-80
2023/12/18 04:18:36;;;;;;;17.10;8.57;;;;;;;;;;5094054;28;20051;-80
2023/12/18 04:21:03;;;;;;;18.05;8.60;;;;;;;;;;5096009;28;20131;-79
2023/12/18 04:23:31;;;;;;;14.80;8.68;;;;;;;;;;5099441;28;20040;-80
2023/12/18 04:25:57;;;;;;;17.27;9.40;;;;;;;;;;5100927;28;20055;-80
2023/12/18 04:28:24;;;;;;;16.63;8.63;;;;;;;;;;5091590;28;20079;-80
2023/12/18 04:30:51;;;;;;;18.33;8.85;;;;;;;;;;5102167;28;20056;-79
2023/12/18 04:33:17;;;;;;;21.95;9.10;;;;;;;;;;5094005;28;20488;-80
2023/12/18 04:35:44;;;;;;;18.58;9.15;;;;;;;;;;5094384;28;20055;-80
2023/12/18 04:38:11;;;;;;;17.98;9.15;;;;;;;;;;5097556;28;20052;-80
2023/12/18 04:40:39;;;;;;;18.35;9.35;;;;;;;;;;5098412;28;20040;-80
2023/12/18 04:43:05;;;;;;;20.75;10.10;;;;;;;;;;5098113;28;20097;-80
2023/12/18 04:45:32;;;;;;;16.73;8.68;;;;;;;;;;5094028;28;20052;-79
2023/12/18 04:47:59;;;;;;;17.65;8.98;;;;;;;;;;5099303;28;20048;-80
2023/12/18 04:50:25;;;;;;;17.95;8.93;;;;;;;;;;5096281;28;20044;-80
2023/12/18 04:52:52;;;;;;;17.27;9.73;;;;;;;;;;5101353;28;20044;-79
2023/12/18 04:55:19;;;;;;;21.30;9.25;;;;;;;;;;5097662;28;20040;-80
2023/12/18 04:57:47;;;;;;;26.13;9.40;;;;;;;;;;5095086;28;20048;-79
2023/12/18 05:00:13;;;;;;;20.65;10.13;;;;;;;;;;5096610;28;20121;-79
2023/12/18 05:02:40;;;;;;;18.98;9.13;;;;;;;;;;5092235;28;20186;-79
2023/12/18 05:05:07;;;;;;;22.60;9.60;;;;;;;;;;5096620;28;20044;-79
2023/12/18 05:07:34;;;;;;;25.60;10.10;;;;;;;;;;5096325;28;20048;-80
2023/12/18 05:10:01;;;;;;;18.90;8.95;;;;;;;;;;5086701;28;20048;-79
2023/12/18 05:12:27;;;;;;;19.48;9.07;;;;;;;;;;5093396;28;20098;-79
2023/12/18 05:14:55;;;;;;;18.00;8.43;;;;;;;;;;5096104;28;20053;-79
2023/12/18 05:17:22;;;;;;;19.80;8.43;;;;;;;;;;5090655;28;20503;-79
2023/12/18 05:19:49;;;;;;;20.90;9.32;;;;;;;;;;5098169;28;20043;-80
2023/12/18 05:22:15;;;;;;;19.90;8.95;;;;;;;;;;5100667;28;20040;-79
2023/12/18 05:24:42;;;;;;;23.60;9.90;;;;;;;;;;5097305;28;20040;-80
2023/12/18 05:27:09;;;;;;;21.23;9.93;;;;;;;;;;5095963;28;20400;-79
2023/12/18 05:29:35;;;;;;;20.33;9.77;;;;;;;;;;5093891;28;20110;-80
2023/12/18 05:32:04;;;;;;;21.60;9.75;;;;;;;;;;5087561;28;20079;-80
2023/12/18 05:34:30;;;;;;;20.35;9.13;;;;;;;;;;5087284;28;20080;-80
2023/12/18 05:36:57;;;;;;;20.40;9.43;;;;;;;;;;5095641;28;20553;-80
2023/12/18 05:39:24;;;;;;;18.50;9.38;;;;;;;;;;5097946;28;20071;-79
2023/12/18 05:41:50;;;;;;;18.90;9.80;;;;;;;;;;5096718;28;20055;-80
2023/12/18 05:44:17;;;;;;;21.02;9.27;;;;;;;;;;5098819;28;20079;-79
2023/12/18 05:46:43;;;;;;;20.20;9.30;;;;;;;;;;5091433;28;20075;-80
2023/12/18 05:49:12;;;;;;;21.00;10.65;;;;;;;;;;5097719;28;20461;-80
2023/12/18 05:51:39;;;;;;;22.35;9.77;;;;;;;;;;5089434;28;20045;-80
2023/12/18 05:54:05;;;;;;;21.48;10.25;;;;;;;;;;5094203;28;20093;-79
2023/12/18 05:56:32;;;;;;;20.92;9.85;;;;;;;;;;5095105;28;20077;-81
2023/12/18 05:58:59;;;;;;;20.77;8.75;;;;;;;;;;5096078;28;20052;-79
2023/12/18 06:01:26;;;;;;;23.15;10.65;;;;;;;;;;5099859;28;20052;-79
2023/12/18 06:03:52;;;;;;;22.73;10.35;;;;;;;;;;5094701;28;20059;-80
2023/12/18 06:06:20;;;;;;;21.10;10.88;;;;;;;;;;5098543;28;20427;-79
2023/12/18 06:08:47;;;;;;;22.33;10.73;;;;;;;;;;5094341;28;20041;-79
2023/12/18 06:11:15;;;;;;;22.10;10.13;;;;;;;;;;5095074;28;20505;-79
2023/12/18 06:13:42;;;;;;;21.98;10.60;;;;;;;;;;5098095;28;20059;-81
2023/12/18 06:16:09;;;;;;;20.98;9.45;;;;;;;;;;5098207;28;20067;-80
2023/12/18 06:18:35;;;;;;;23.48;10.88;;;;;;;;;;5093482;28;20081;-80
2023/12/18 06:21:03;;;;;;;20.15;9.55;;;;;;;;;;5085774;28;20492;-80
2023/12/18 06:23:32;;;;;;;17.55;9.93;;;;;;;;;;5095129;28;20103;-80
2023/12/18 06:25:58;;;;;;;23.33;10.65;;;;;;;;;;5091934;28;20552;-79
2023/12/18 06:28:25;;;;;;;22.27;10.70;;;;;;;;;;5093102;28;20044;-80
2023/12/18 06:30:52;;;;;;;24.98;11.15;;;;;;;;;;5093061;28;20045;-80
2023/12/18 06:33:18;;;;;;;20.13;9.90;;;;;;;;;;5099345;28;20043;-80
2023/12/18 06:35:45;;;;;;;21.30;10.27;;;;;;;;;;5096176;28;20094;-80
2023/12/18 06:38:12;;;;;;;21.77;11.07;;;;;;;;;;5095503;28;20105;-79
2023/12/18 06:40:40;;;;;;;23.40;10.80;;;;;;;;;;5095043;28;20048;-79
2023/12/18 06:43:06;;;;;;;25.00;10.32;;;;;;;;;;5096943;28;20055;-79
2023/12/18 06:45:34;;;;;;;23.55;11.23;;;;;;;;;;5092603;28;20108;-79
2023/12/18 06:48:00;;;;;;;24.40;10.88;;;;;;;;;;5092966;28;20048;-79
2023/12/18 06:50:28;;;;;;;21.50;11.20;;;;;;;;;;5093078;28;20056;-80
2023/12/18 06:52:55;;;;;;;24.80;11.13;;;;;;;;;;5096109;28;20105;-79
2023/12/18 06:55:23;;;;;;;22.58;10.88;;;;;;;;;;5094407;28;20040;-78
2023/12/18 06:57:51;;;;;;;25.55;11.70;;;;;;;;;;5092331;28;20072;-79
2023/12/18 07:00:18;;;;;;;25.10;11.40;;;;;;;;;;5097935;28;20537;-79
2023/12/18 07:02:45;;;;;;;24.13;12.13;;;;;;;;;;5089054;28;20048;-79
2023/12/18 07:05:13;;;;;;;25.20;11.38;;;;;;;;;;5094477;28;20044;-79
2023/12/18 07:07:40;;;;;;;26.65;11.93;;;;;;;;;;5096653;28;20480;-80
2023/12/18 07:10:07;;;;;;;24.65;11.55;;;;;;;;;;5096795;28;20461;-80
2023/12/18 07:12:34;;;;;;;22.67;10.75;;;;;;;;;;5093437;28;20082;-79
2023/12/18 07:15:02;;;;;;;26.25;11.75;;;;;;;;;;5086430;28;20044;-80
2023/12/18 07:17:29;;;;;;;23.48;11.15;;;;;;;;;;5093288;28;20055;-80
2023/12/18 07:19:56;;;;;;;25.42;11.27;;;;;;;;;;5099077;28;20619;-80
2023/12/18 07:22:22;;;;;;;24.27;11.60;;;;;;;;;;5087166;28;20553;-79
2023/12/18 07:24:49;;;;;;;23.05;11.45;;;;;;;;;;5094568;28;20047;-79
2023/12/18 07:27:16;;;;;;;22.67;10.07;;;;;;;;;;5081898;28;20088;-80
2023/12/18 07:29:42;;;;;;;21.60;10.95;;;;;;;;;;5089003;28;20506;-79
2023/12/18 07:32:10;;;;;;;22.52;10.93;;;;;;;;;;5095742;28;20048;-79
2023/12/18 07:34:37;;;;;;;20.00;11.07;;;;;;;;;;5090152;28;20045;-79
2023/12/18 07:37:05;;;;;;;22.20;11.57;;;;;;;;;;5092518;28;20549;-79
2023/12/18 07:39:32;;;;;;;23.40;10.85;;;;;;;;;;5098102;28;20041;-79
2023/12/18 07:41:59;;;;;;;19.38;10.65;;;;;;;;;;5095628;28;20044;-79
2023/12/18 07:44:25;;;;;;;21.27;11.32;;;;;;;;;;5095615;28;20055;-79
2023/12/18 07:46:52;;;;;;;22.88;11.07;;;;;;;;;;5098744;28;20102;-79
2023/12/18 07:49:22;;;;;;;19.45;11.20;;;;;;;;;;5084903;28;20063;-78
2023/12/18 07:51:49;;;;;;;18.58;11.40;;;;;;;;;;5080396;28;20040;-78
2023/12/18 07:54:15;;;;;;;23.80;10.80;;;;;;;;;;5087378;28;20048;-79
2023/12/18 07:56:42;;;;;;;21.10;10.60;;;;;;;;;;5089164;28;20048;-79
2023/12/18 07:59:11;;;;;;;22.25;10.38;;;;;;;;;;5093907;28;20044;-80
2023/12/18 08:01:37;;;;;;;20.45;10.15;;;;;;;;;;5085390;28;20389;-79
2023/12/18 08:04:04;;;;;;;21.00;10.18;;;;;;;;;;5094190;28;20044;-78
2023/12/18 08:06:32;;;;;;;19.63;10.38;;;;;;;;;;5088267;28;20048;-78
2023/12/18 08:08:59;;;;;;;18.05;9.82;;;;;;;;;;5089862;28;20557;-79
2023/12/18 08:11:26;;;;;;;19.08;10.07;;;;;;;;;;5095826;28;20048;-79
2023/12/18 08:13:52;;;;;;;19.10;10.60;;;;;;;;;;5094799;28;20508;-79
2023/12/18 08:16:20;;;;;;;18.63;9.90;;;;;;;;;;5098399;28;20055;-78
2023/12/18 08:18:47;;;;;;;20.92;11.02;;;;;;;;;;5100723;28;20040;-78
2023/12/18 08:21:14;;;;;;;20.40;10.15;;;;;;;;;;5092369;28;20047;-79
2023/12/18 08:23:42;;;;;;;20.33;10.45;;;;;;;;;;5096535;28;20065;-79
2023/12/18 08:26:10;;;;;;;20.40;11.38;;;;;;;;;;5088781;28;20048;-79
2023/12/18 08:28:37;;;;;;;19.73;10.95;;;;;;;;;;5093610;28;20091;-79
2023/12/18 08:31:04;;;;;;;19.38;10.82;;;;;;;;;;5094498;28;20052;-79
2023/12/18 08:33:31;;;;;;;21.02;10.25;;;;;;;;;;5102025;28;20044;-79
2023/12/18 08:35:57;;;;;;;18.40;10.40;;;;;;;;;;5089448;28;20052;-79
2023/12/18 08:38:24;;;;;;;21.75;10.63;;;;;;;;;;5096598;28;20048;-79
2023/12/18 08:40:52;;;;;;;21.42;10.60;;;;;;;;;;5093420;28;20044;-80
2023/12/18 08:43:19;;;;;;;20.52;10.45;;;;;;;;;;5099245;28;20040;-80
2023/12/18 08:45:45;;;;;;;18.17;10.02;;;;;;;;;;5095910;28;20047;-79
2023/12/18 08:48:12;;;;;;;22.27;12.70;;;;;;;;;;5091455;28;20049;-82
2023/12/18 08:50:39;;;;;;;21.83;11.25;;;;;;;;;;5087222;28;20121;-81
2023/12/18 08:53:06;;;;;;;21.25;10.82;;;;;;;;;;5078923;28;20097;-80
2023/12/18 08:55:38;;;;;;;22.95;11.95;;;;;;;;;;5091523;28;20051;-80
2023/12/18 08:58:06;;;;;;;29.25;15.70;;;;;;;;;;5092385;28;20522;-79
2023/12/18 09:00:33;;;;;;;19.65;11.48;;;;;;;;;;5087881;28;20048;-78
2023/12/18 09:03:00;;;;;;;30.63;15.10;;;;;;;;;;5084512;28;20518;-79
2023/12/18 09:05:27;;;;;;;20.05;10.50;;;;;;;;;;5092859;28;20054;-80
2023/12/18 09:07:53;;;;;;;18.00;10.77;;;;;;;;;;5094497;28;20045;-80
2023/12/18 09:10:22;;;;;;;17.10;9.63;;;;;;;;;;5095250;28;20048;-81
2023/12/18 09:12:48;;;;;;;18.23;10.13;;;;;;;;;;5091959;28;20083;-81
2023/12/18 09:15:17;;;;;;;18.80;10.82;;;;;;;;;;5085080;28;20082;-80
2023/12/18 09:17:44;;;;;;;19.25;10.82;;;;;;;;;;5088026;28;20099;-79
2023/12/18 09:20:11;;;;;;;18.42;10.63;;;;;;;;;;5097795;28;20091;-80
2023/12/18 09:22:38;;;;;;;18.08;9.88;;;;;;;;;;5089005;28;20355;-80
2023/12/18 09:25:05;;;;;;;17.65;10.77;;;;;;;;;;5095463;28;20548;-81
2023/12/18 09:27:32;;;;;;;17.17;9.55;;;;;;;;;;5087609;28;20270;-79
2023/12/18 09:29:59;;;;;;;15.50;9.77;;;;;;;;;;5094225;28;20055;-81
2023/12/18 09:32:27;;;;;;;17.80;10.48;;;;;;;;;;5093396;28;20197;-82
2023/12/18 09:34:54;;;;;;;18.63;11.30;;;;;;;;;;5089314;28;20040;-79
2023/12/18 09:37:20;;;;;;;17.77;11.20;;;;;;;;;;5094697;28;20105;-80
2023/12/18 09:39:47;;;;;;;17.73;10.07;;;;;;;;;;5088504;28;20049;-80
2023/12/18 09:42:14;;;;;;;20.48;11.40;;;;;;;;;;5093295;28;20045;-79
2023/12/18 09:44:41;;;;;;;20.77;10.85;;;;;;;;;;5096026;28;20040;-80
2023/12/18 09:47:08;;;;;;;16.95;10.07;;;;;;;;;;5097462;28;20043;-82
2023/12/18 09:49:36;;;;;;;18.58;9.95;;;;;;;;;;5095815;28;20052;-81
2023/12/18 09:52:07;;;;;;;18.02;9.65;;;;;;;;;;5082796;28;20048;-81
2023/12/18 09:54:34;;;;;;;18.02;10.45;;;;;;;;;;5092115;28;20539;-80
2023/12/18 09:57:03;;;;;;;16.73;10.13;;;;;;;;;;5092939;28;20103;-81
2023/12/18 09:59:30;;;;;;;19.33;9.93;;;;;;;;;;5083765;28;20053;-80
2023/12/18 10:01:57;;;;;;;19.70;10.43;;;;;;;;;;5085814;28;20113;-79
2023/12/18 10:04:24;;;;;;;17.58;9.77;;;;;;;;;;5093532;28;20048;-79
2023/12/18 10:06:52;;;;;;;17.48;10.30;;;;;;;;;;5093294;28;20044;-79
2023/12/18 10:09:19;;;;;;;15.82;9.70;;;;;;;;;;5088378;28;20385;-79
2023/12/18 10:11:48;;;;;;;16.75;10.05;;;;;;;;;;5088103;28;20245;-81
2023/12/18 10:14:15;;;;;;;16.50;9.32;;;;;;;;;;5095400;28;20074;-80
2023/12/18 10:16:42;;;;;;;18.33;11.85;;;;;;;;;;5085964;28;20104;-79
2023/12/18 10:19:10;;;;;;;17.75;9.95;;;;;;;;;;5098158;28;20052;-80
2023/12/18 10:21:37;;;;;;;15.90;9.07;;;;;;;;;;5091306;28;20049;-80
2023/12/18 10:24:06;;;;;;;18.40;9.90;;;;;;;;;;5079443;28;20098;-80
2023/12/18 10:26:33;;;;;;;16.48;9.52;;;;;;;;;;5087271;28;20059;-79
2023/12/18 10:29:00;;;;;;;16.20;9.80;;;;;;;;;;5090754;28;20075;-81
2023/12/18 10:31:27;;;;;;;14.02;9.10;;;;;;;;;;5090595;28;20049;-80
2023/12/18 10:33:55;;;;;;;17.52;9.43;;;;;;;;;;5089123;28;20078;-80
2023/12/18 10:36:24;;;;;;;14.88;9.55;;;;;;;;;;5088830;28;20048;-80
2023/12/18 10:38:51;;;;;;;15.02;8.65;;;;;;;;;;5094127;28;20467;-80
2023/12/18 10:41:21;;;;;;;15.68;9.05;;;;;;;;;;5085319;28;20499;-79
2023/12/18 10:43:49;;;;;;;15.18;8.80;;;;;;;;;;5095721;28;20301;-79
2023/12/18 10:46:16;;;;;;;18.45;9.80;;;;;;;;;;5092592;28;20119;-81
2023/12/18 10:48:43;;;;;;;15.85;9.43;;;;;;;;;;5091530;28;20052;-79
2023/12/18 10:51:11;;;;;;;16.63;9.80;;;;;;;;;;5089071;28;20547;-78
2023/12/18 10:53:38;;;;;;;16.23;9.90;;;;;;;;;;5088551;28;20044;-80
2023/12/18 10:56:06;;;;;;;16.10;9.68;;;;;;;;;;5088006;28;20124;-79
2023/12/18 10:58:34;;;;;;;18.13;10.05;;;;;;;;;;5095946;28;20077;-79
2023/12/18 11:01:03;;;;;;;18.48;10.15;;;;;;;;;;5091963;28;20066;-78
2023/12/18 11:03:30;;;;;;;13.45;9.20;;;;;;;;;;5092470;28;20044;-79
2023/12/18 11:05:57;;;;;;;17.92;9.27;;;;;;;;;;5093719;28;20492;-80
2023/12/18 11:08:24;;;;;;;16.88;9.60;;;;;;;;;;5083411;28;20319;-80
2023/12/18 11:10:52;;;;;;;16.02;10.23;;;;;;;;;;5099221;28;20074;-81
2023/12/18 11:13:26;;;;;;;15.63;9.93;;;;;;;;;;5092448;28;20082;-80
2023/12/18 11:16:02;;;;;;;17.35;10.13;;;;;;;;;;5094653;28;20068;-81
2023/12/18 11:18:40;;;;;;;17.50;10.18;;;;;;;;;;5094495;28;20060;-80
2023/12/18 11:21:06;;;;;;;16.45;9.35;;;;;;;;;;5096739;28;20074;-80
2023/12/18 11:23:39;;;;;;;15.40;9.98;;;;;;;;;;5090763;28;20057;-80
2023/12/18 11:26:10;;;;;;;18.67;9.48;;;;;;;;;;5085808;28;20052;-80
2023/12/18 11:28:36;;;;;;;15.07;9.50;;;;;;;;;;5086973;28;20127;-79
2023/12/18 11:31:06;;;;;;;18.55;10.07;;;;;;;;;;5084112;28;20055;-80
2023/12/18 11:33:33;;;;;;;16.80;9.75;;;;;;;;;;5089325;28;20125;-80
2023/12/18 11:36:01;;;;;;;16.48;9.93;;;;;;;;;;5088530;28;20076;-81
2023/12/18 11:38:28;;;;;;;16.42;9.48;;;;;;;;;;5088260;28;20569;-80
2023/12/18 11:40:56;;;;;;;16.92;9.68;;;;;;;;;;5095125;28;20110;-80
2023/12/18 11:43:45;;;;;;;20.30;10.75;;;;;;;;;;5093262;28;20040;-81
2023/12/18 11:46:14;;;;;;;16.45;9.82;;;;;;;;;;5088451;28;20531;-80
2023/12/18 11:48:41;;;;;;;18.05;9.90;;;;;;;;;;5099774;28;20059;-81
2023/12/18 11:51:08;;;;;;;22.27;12.00;;;;;;;;;;5086927;28;20077;-81
2023/12/18 11:53:36;;;;;;;17.13;10.30;;;;;;;;;;5091504;28;20036;-80
2023/12/18 11:56:07;;;;;;;18.10;10.02;;;;;;;;;;5094846;28;20044;-79
2023/12/18 11:58:36;;;;;;;19.42;10.52;;;;;;;;;;5100153;28;20068;-79
2023/12/18 12:01:03;;;;;;;18.50;10.25;;;;;;;;;;5100356;28;20054;-80
2023/12/18 12:03:32;;;;;;;16.90;11.43;;;;;;;;;;5099405;28;20098;-79
2023/12/18 12:06:00;;;;;;;16.10;10.65;;;;;;;;;;5098649;28;20040;-79
2023/12/18 12:08:27;;;;;;;15.57;9.70;;;;;;;;;;5092664;28;20052;-79
2023/12/18 12:10:56;;;;;;;18.98;10.50;;;;;;;;;;5091950;28;20059;-78
2023/12/18 12:13:24;;;;;;;19.77;11.23;;;;;;;;;;5098097;28;20048;-78
2023/12/18 12:15:56;;;;;;;17.95;9.15;;;;;;;;;;5090176;28;20048;-79
2023/12/18 12:18:23;;;;;;;17.23;9.70;;;;;;;;;;5096523;28;20044;-80
2023/12/18 12:20:51;;;;;;;17.80;10.90;;;;;;;;;;5096240;28;20049;-78
2023/12/18 12:23:17;;;;;;;17.10;9.52;;;;;;;;;;5096272;28;20043;-79
2023/12/18 12:25:46;;;;;;;15.25;9.25;;;;;;;;;;5097856;28;20050;-79
2023/12/18 12:28:14;;;;;;;18.67;10.30;;;;;;;;;;5098829;28;20055;-79
2023/12/18 12:30:41;;;;;;;15.50;9.63;;;;;;;;;;5091424;28;20048;-81
2023/12/18 12:33:07;;;;;;;16.17;10.32;;;;;;;;;;5089479;28;20066;-81
2023/12/18 12:35:35;;;;;;;16.83;10.18;;;;;;;;;;5086564;28;20082;-81
2023/12/18 12:38:04;;;;;;;15.02;9.02;;;;;;;;;;5093163;28;20135;-82
2023/12/18 12:40:39;;;;;;;17.13;9.60;;;;;;;;;;5088866;28;20098;-82
2023/12/18 12:43:06;;;;;;;16.25;9.95;;;;;;;;;;5089706;28;20055;-82
2023/12/18 12:45:33;;;;;;;16.95;9.70;;;;;;;;;;5086561;28;20077;-78
2023/12/18 12:48:00;;;;;;;15.40;10.02;;;;;;;;;;5099471;28;20131;-79
2023/12/18 12:50:26;;;;;;;16.23;9.45;;;;;;;;;;5091817;28;20349;-80
2023/12/18 12:52:53;;;;;;;13.73;8.52;;;;;;;;;;5088462;28;20117;-80
2023/12/18 12:55:37;;;;;;;15.05;8.60;;;;;;;;;;5094112;28;20048;-81
2023/12/18 12:58:05;;;;;;;14.82;9.07;;;;;;;;;;5081017;28;20119;-80
2023/12/18 13:00:31;;;;;;;15.10;9.63;;;;;;;;;;5090347;28;20083;-80
2023/12/18 13:02:58;;;;;;;17.67;9.43;;;;;;;;;;5095062;28;20055;-81
2023/12/18 13:05:25;;;;;;;13.45;8.70;;;;;;;;;;5091301;28;20056;-81
2023/12/18 13:07:52;;;;;;;17.58;9.80;;;;;;;;;;5090318;28;20048;-81
2023/12/18 13:10:19;;;;;;;16.17;9.60;;;;;;;;;;5087804;28;20569;-79
2023/12/18 13:12:48;;;;;;;13.18;8.63;;;;;;;;;;5094326;28;20097;-80
2023/12/18 13:15:16;;;;;;;16.55;9.05;;;;;;;;;;5095705;28;20401;-80
2023/12/18 13:17:42;;;;;;;15.88;9.25;;;;;;;;;;5095856;28;20052;-80
2023/12/18 13:20:09;;;;;;;14.23;8.48;;;;;;;;;;5088356;28;20044;-80
2023/12/18 13:22:36;;;;;;;16.45;9.25;;;;;;;;;;5086922;28;20052;-81
2023/12/18 13:25:03;;;;;;;15.60;9.43;;;;;;;;;;5093048;28;20072;-81
2023/12/18 13:27:30;;;;;;;14.98;9.10;;;;;;;;;;5094733;28;20423;-80
2023/12/18 13:29:58;;;;;;;16.30;9.40;;;;;;;;;;5090174;28;20071;-80
2023/12/18 13:32:25;;;;;;;16.27;9.45;;;;;;;;;;5091996;28;20073;-81
2023/12/18 13:34:52;;;;;;;15.57;9.35;;;;;;;;;;5092057;28;20048;-81
2023/12/18 13:37:19;;;;;;;15.10;9.55;;;;;;;;;;5092320;28;20090;-80
2023/12/18 13:39:46;;;;;;;14.25;9.10;;;;;;;;;;5083484;28;20470;-81
2023/12/18 13:42:14;;;;;;;13.98;9.18;;;;;;;;;;5096005;28;20044;-81
2023/12/18 13:44:41;;;;;;;16.35;8.88;;;;;;;;;;5093203;28;20048;-79
2023/12/18 13:47:09;;;;;;;13.65;8.65;;;;;;;;;;5088716;28;20536;-79
2023/12/18 13:49:37;;;;;;;15.50;9.27;;;;;;;;;;5083902;28;20048;-78
2023/12/18 13:52:03;;;;;;;16.58;9.70;;;;;;;;;;5085434;28;20070;-80
2023/12/18 13:54:30;;;;;;;17.55;8.95;;;;;;;;;;5089244;28;20068;-80
2023/12/18 13:56:57;;;;;;;16.23;9.23;;;;;;;;;;5089188;28;20091;-79
2023/12/18 13:59:24;;;;;;;16.73;9.25;;;;;;;;;;5095244;28;20044;-81
2023/12/18 14:01:50;;;;;;;16.58;9.27;;;;;;;;;;5084664;28;20054;-78
2023/12/18 14:04:18;;;;;;;15.82;9.40;;;;;;;;;;5089082;28;20047;-80
2023/12/18 14:06:45;;;;;;;17.67;10.00;;;;;;;;;;5087817;28;20072;-81
2023/12/18 14:09:11;;;;;;;23.00;12.40;;;;;;;;;;5090548;28;20530;-79
2023/12/18 14:11:38;;;;;;;16.83;9.48;;;;;;;;;;5088276;28;20444;-79
2023/12/18 14:14:05;;;;;;;15.27;9.13;;;;;;;;;;5091925;28;20040;-79
2023/12/18 14:16:31;;;;;;;15.77;9.95;;;;;;;;;;5092067;28;20459;-79
2023/12/18 14:18:58;;;;;;;16.17;10.07;;;;;;;;;;5090090;28;20179;-79
2023/12/18 14:21:27;;;;;;;16.70;9.35;;;;;;;;;;5090204;28;20084;-80
2023/12/18 14:23:54;;;;;;;16.98;10.93;;;;;;;;;;5090636;28;20048;-79
2023/12/18 14:26:21;;;;;;;16.50;10.02;;;;;;;;;;5087164;28;20106;-79